Weather History for Georgetown, SC

Change the Weather History Date:

Friday, January 3, 2014

  Actual Average Record
Temperature  
Mean Temperature 40 °F -  
Max Temperature 50 °F 59 °F 60 °F (2015)
Min Temperature 30 °F 37 °F 26 °F (2012)
Degree Days  
Heating Degree Days 25    
Moisture  
Dew Point 22 °F    
Average Humidity 59    
Maximum Humidity 87    
Minimum Humidity 38    
Precipitation  
Precipitation 0.00 in - - ()
Sea Level Pressure  
Sea Level Pressure 30.20 in    
Wind  
Wind Speed 13 mph (NNW)    
Max Wind Speed 18 mph    
Max Gust Speed 36 mph    
Visibility 10 miles    
Events      
Averages and records for this station are not official NWS values.
T = Trace of Precipitation, MM = Missing Value Source: NWS Daily Summary

Daily Weather History Graph

Daily Weather History Graph

Search for Another Location

Airport:

Trip Planner

Search our weather history database for the weather conditions in past years. The results will help you decide how hot, cold, wet, or windy it might be!

Date:

Astronomy

Jan. 03, 2014 Rise Set
Actual Time 7:21 AM EST 5:22 PM EST
Civil Twilight 6:54 AM EST 5:49 PM EST
Nautical Twilight 6:23 AM EST 6:20 PM EST
Astronomical Twilight 5:53 AM EST 6:50 PM EST
Moon 8:54 AM EST (1/3) 8:19 PM EST (1/3)
Length of Visible Light 10h 55m
Length of Day
10h 01m
Waxing Crescent, 8% of the Moon is Illuminated
Jan 3
Waxing Crescent
Jan 7
First Quarter
Jan 15
Full
Jan 24
Last Quarter
Jan 30
New

Hourly Weather History & Observations

Time (EST) Temp. Windchill Dew Point Humidity Pressure Visibility Wind Dir Wind Speed Gust Speed Precip Events Conditions
12:15 AM 50.0 °F - 46.4 °F 87% 29.74 in 10.0 mi West 15.0 mph 20.7 mph N/A   Mostly Cloudy
12:35 AM 48.2 °F - 42.8 °F 82% 29.76 in 10.0 mi West 11.5 mph 24.2 mph N/A   Scattered Clouds
12:55 AM 46.4 °F 40.1 °F 41.0 °F 81% 29.76 in 10.0 mi West 15.0 mph 23.0 mph N/A   Clear
1:15 AM 46.4 °F 40.1 °F 41.0 °F 81% 29.78 in 10.0 mi West 15.0 mph 23.0 mph N/A   Scattered Clouds
1:35 AM 44.6 °F 37.8 °F 39.2 °F 81% 29.79 in 10.0 mi West 15.0 mph 27.6 mph N/A   Scattered Clouds
1:55 AM 44.6 °F 37.2 °F 37.4 °F 76% 29.81 in 10.0 mi West 17.3 mph 31.1 mph N/A   Mostly Cloudy
2:15 AM 42.8 °F 36.6 °F 35.6 °F 76% 29.83 in 10.0 mi West 11.5 mph 20.7 mph N/A   Overcast
2:35 AM 41.0 °F 32.2 °F 33.8 °F 76% 29.85 in 10.0 mi West 18.4 mph 24.2 mph N/A   Mostly Cloudy
2:55 AM 41.0 °F 33.1 °F 32.0 °F 70% 29.87 in 10.0 mi West 15.0 mph 27.6 mph N/A   Scattered Clouds
3:15 AM 39.2 °F 29.8 °F 32.0 °F 75% 29.88 in 10.0 mi WNW 18.4 mph 26.5 mph N/A   Clear
3:35 AM 37.4 °F 28.9 °F 32.0 °F 81% 29.90 in 10.0 mi West 13.8 mph 26.5 mph N/A   Clear
3:55 AM 37.4 °F 28.2 °F 32.0 °F 81% 29.92 in 10.0 mi WNW 16.1 mph 27.6 mph N/A   Clear
4:15 AM 37.4 °F 28.2 °F 32.0 °F 81% 29.93 in 10.0 mi WNW 16.1 mph 27.6 mph N/A   Clear
4:35 AM 37.4 °F 28.5 °F 32.0 °F 81% 29.96 in 10.0 mi NW 15.0 mph 24.2 mph N/A   Clear
4:55 AM 35.6 °F 25.5 °F 23.0 °F 60% 29.99 in 10.0 mi WNW 17.3 mph 35.7 mph N/A   Clear
5:15 AM 33.8 °F 24.3 °F 23.0 °F 65% 30.00 in 10.0 mi NW 13.8 mph 26.5 mph N/A   Clear
5:35 AM 33.8 °F 26.4 °F 23.0 °F 65% 30.02 in 10.0 mi NW 9.2 mph 16.1 mph N/A   Clear
5:55 AM 32.0 °F 23.0 °F 21.2 °F 64% 30.04 in 10.0 mi WNW 11.5 mph 25.3 mph N/A   Clear
6:15 AM 32.0 °F 20.5 °F 21.2 °F 64% 30.06 in 10.0 mi NW 18.4 mph 25.3 mph N/A   Clear
6:35 AM 32.0 °F 21.2 °F 21.2 °F 64% 30.08 in 10.0 mi WNW 16.1 mph 26.5 mph N/A   Clear
6:55 AM 32.0 °F 21.2 °F 21.2 °F 64% 30.09 in 10.0 mi WNW 16.1 mph 26.5 mph N/A   Clear
7:15 AM 32.0 °F 21.2 °F 21.2 °F 64% 30.11 in 10.0 mi NW 16.1 mph 24.2 mph N/A   Clear
7:35 AM 32.0 °F 22.1 °F 19.4 °F 60% 30.13 in 10.0 mi NW 13.8 mph 21.9 mph N/A   Clear
7:55 AM 32.0 °F 22.1 °F 19.4 °F 60% 30.15 in 10.0 mi NW 13.8 mph 21.9 mph N/A   Clear
8:15 AM 32.0 °F 23.6 °F 19.4 °F 60% 30.17 in 10.0 mi NW 10.4 mph - N/A   Clear
8:35 AM 32.0 °F 23.6 °F 19.4 °F 60% 30.19 in 10.0 mi NNW 10.4 mph 25.3 mph N/A   Clear
8:55 AM 32.0 °F 21.6 °F 17.6 °F 55% 30.21 in 10.0 mi NNW 15.0 mph 29.9 mph N/A   Clear
9:15 AM 32.0 °F 21.6 °F 15.8 °F 51% 30.22 in 10.0 mi NNW 15.0 mph 26.5 mph N/A   Clear
9:35 AM 32.0 °F 21.6 °F 15.8 °F 51% 30.22 in 10.0 mi NNW 15.0 mph 26.5 mph N/A   Clear
9:55 AM 32.0 °F 20.5 °F 14.0 °F 48% 30.24 in 10.0 mi NNW 18.4 mph 27.6 mph N/A   Clear
10:15 AM 33.8 °F 23.9 °F 14.0 °F 44% 30.24 in 10.0 mi NNW 15.0 mph 23.0 mph N/A   Clear
10:35 AM 33.8 °F 22.8 °F 14.0 °F 44% 30.25 in 10.0 mi NNW 18.4 mph 23.0 mph N/A   Clear
10:55 AM 33.8 °F 25.8 °F 14.0 °F 44% 30.25 in 10.0 mi NNW 10.4 mph 25.3 mph N/A   Clear
11:15 AM 33.8 °F 24.3 °F 14.0 °F 44% 30.25 in 10.0 mi North 13.8 mph 25.3 mph N/A   Clear
11:35 AM 35.6 °F 25.2 °F 14.0 °F 41% 30.26 in 10.0 mi NNW 18.4 mph 26.5 mph N/A   Clear
11:55 AM 35.6 °F 25.9 °F 14.0 °F 41% 30.27 in 10.0 mi North 16.1 mph 27.6 mph N/A   Clear
12:15 PM 37.4 °F 27.8 °F 14.0 °F 38% 30.27 in 10.0 mi North 17.3 mph 23.0 mph N/A   Clear
12:35 PM 37.4 °F 28.2 °F 15.8 °F 41% 30.27 in 10.0 mi North 16.1 mph 23.0 mph N/A   Clear
12:55 PM 37.4 °F 28.9 °F 15.8 °F 41% 30.27 in 10.0 mi North 13.8 mph 24.2 mph N/A   Clear
1:15 PM 37.4 °F 29.3 °F 15.8 °F 41% 30.27 in 10.0 mi North 12.7 mph 25.3 mph N/A   Clear
1:35 PM 39.2 °F 31.2 °F 17.6 °F 42% 30.27 in 10.0 mi North 13.8 mph 23.0 mph N/A   Clear
1:55 PM 39.2 °F 32.5 °F 15.8 °F 39% 30.28 in 10.0 mi North 10.4 mph 18.4 mph N/A   Clear
2:15 PM 39.2 °F 32.5 °F 15.8 °F 39% 30.29 in 10.0 mi North 10.4 mph 18.4 mph N/A   Clear
2:35 PM 39.2 °F 31.2 °F 15.8 °F 39% 30.29 in 10.0 mi North 13.8 mph 24.2 mph N/A   Clear
2:55 PM 39.2 °F 30.5 °F 17.6 °F 42% 30.29 in 10.0 mi North 16.1 mph 20.7 mph N/A   Clear
3:15 PM 39.2 °F 32.5 °F 15.8 °F 39% 30.31 in 10.0 mi North 10.4 mph 21.9 mph N/A   Clear
3:35 PM 39.2 °F 32.0 °F 17.6 °F 42% 30.32 in 10.0 mi North 11.5 mph 16.1 mph N/A   Clear
3:55 PM 39.2 °F 34.2 °F 17.6 °F 42% 30.32 in 10.0 mi North 6.9 mph - N/A   Clear
4:15 PM 37.4 °F 30.3 °F 17.6 °F 45% 30.32 in 10.0 mi North 10.4 mph 18.4 mph N/A   Clear
4:35 PM 37.4 °F 30.8 °F 17.6 °F 45% 30.33 in 10.0 mi North 9.2 mph - N/A   Clear
4:55 PM 35.6 °F 28.6 °F 15.8 °F 44% 30.34 in 10.0 mi North 9.2 mph 17.3 mph N/A   Clear
5:15 PM 35.6 °F 29.9 °F 17.6 °F 48% 30.36 in 10.0 mi North 6.9 mph - N/A   Clear
5:35 PM 33.8 °F 28.6 °F 17.6 °F 52% 30.37 in 10.0 mi North 5.8 mph - N/A   Clear
5:55 PM 33.8 °F 29.6 °F 17.6 °F 52% 30.39 in 10.0 mi North 4.6 mph - N/A   Clear
6:15 PM 33.8 °F 30.8 °F 17.6 °F 52% 30.39 in 10.0 mi North 3.5 mph - N/A   Clear
6:35 PM 32.0 °F - 21.2 °F 64% 30.41 in 10.0 mi Calm Calm - N/A   Clear
6:55 PM 30.2 °F 26.7 °F 21.2 °F 69% 30.42 in 10.0 mi North 3.5 mph - N/A   Clear
7:15 PM 30.2 °F 25.4 °F 21.2 °F 69% 30.42 in 10.0 mi North 4.6 mph - N/A   Clear
7:35 PM 30.2 °F 26.7 °F 21.2 °F 69% 30.43 in 10.0 mi North 3.5 mph - N/A   Clear
7:55 PM 30.2 °F 25.4 °F 21.2 °F 69% 30.43 in 10.0 mi NNE 4.6 mph - N/A   Clear
8:15 PM 30.2 °F 25.4 °F 19.4 °F 64% 30.44 in 10.0 mi North 4.6 mph - N/A   Clear
8:35 PM 30.2 °F 25.4 °F 19.4 °F 64% 30.44 in 10.0 mi NNE 4.6 mph - N/A   Clear
8:55 PM 30.2 °F 23.4 °F 19.4 °F 64% 30.44 in 10.0 mi NE 6.9 mph - N/A   Clear
9:15 PM 30.2 °F 24.3 °F 19.4 °F 64% 30.45 in 10.0 mi NNE 5.8 mph - N/A   Clear
9:35 PM 30.2 °F 25.4 °F 19.4 °F 64% 30.45 in 10.0 mi NNE 4.6 mph - N/A   Clear
9:55 PM 30.2 °F 23.4 °F 19.4 °F 64% 30.45 in 10.0 mi NNE 6.9 mph - N/A   Clear
10:15 PM 30.2 °F 23.4 °F 21.2 °F 69% 30.46 in 10.0 mi NNE 6.9 mph - N/A   Clear
10:35 PM 30.2 °F 24.3 °F 21.2 °F 69% 30.46 in 10.0 mi NNE 5.8 mph - N/A   Clear
10:55 PM 30.2 °F 23.4 °F 21.2 °F 69% 30.46 in 10.0 mi NNE 6.9 mph - N/A   Clear
11:15 PM 30.2 °F 23.4 °F 21.2 °F 69% 30.45 in 10.0 mi NNE 6.9 mph - N/A   Clear
11:35 PM 30.2 °F 23.4 °F 21.2 °F 69% 30.45 in 10.0 mi North 6.9 mph - N/A   Clear
11:55 PM 30.2 °F 23.4 °F 19.4 °F 64% 30.45 in 10.0 mi North 6.9 mph - N/A   Clear